createdAt,value
2023-05-18T00:02:33.605Z,3.78
2023-05-18T00:05:04.337Z,3.95
2023-05-18T00:07:34.649Z,4.07
2023-05-18T00:10:09.741Z,4.35
2023-05-18T00:12:37.245Z,4.22
2023-05-18T00:17:46.873Z,4.05
2023-05-18T00:20:15.174Z,4.80
2023-05-18T00:22:43.012Z,3.70
2023-05-18T00:25:14.117Z,4.22
2023-05-18T00:27:42.969Z,5.32
2023-05-18T00:33:00.841Z,3.92
2023-05-18T00:35:29.080Z,4.20
2023-05-18T00:37:57.203Z,4.20
2023-05-18T00:40:26.122Z,4.63
2023-05-18T00:42:54.047Z,4.32
2023-05-18T00:45:21.811Z,4.43
2023-05-18T00:47:56.196Z,4.03
2023-05-18T00:50:27.164Z,4.43
2023-05-18T00:55:44.439Z,4.63
2023-05-18T00:58:16.484Z,4.18
2023-05-18T01:00:45.493Z,4.55
2023-05-18T01:03:23.516Z,3.75
2023-05-18T01:05:57.570Z,4.30
2023-05-18T01:11:21.800Z,4.20
2023-05-18T01:14:12.298Z,4.45
2023-05-18T01:16:45.964Z,4.50
2023-05-18T01:22:05.869Z,4.07
2023-05-18T01:24:38.180Z,4.65
2023-05-18T01:27:08.105Z,4.53
2023-05-18T01:29:35.692Z,4.75
2023-05-18T01:32:07.063Z,5.05
2023-05-18T01:34:35.078Z,5.75
2023-05-18T01:39:47.530Z,4.75
2023-05-18T01:42:18.895Z,5.60
2023-05-18T01:45:00.397Z,5.32
2023-05-18T01:47:30.358Z,5.45
2023-05-18T01:50:08.613Z,4.30
2023-05-18T01:52:43.401Z,5.15
2023-05-18T01:55:18.605Z,4.93
2023-05-18T01:57:46.895Z,5.35
2023-05-18T02:00:17.074Z,5.13
2023-05-18T02:02:46.161Z,5.07
2023-05-18T02:05:17.591Z,4.80
2023-05-18T02:10:32.605Z,4.70
2023-05-18T02:13:07.122Z,5.18
2023-05-18T02:18:18.859Z,5.45
2023-05-18T02:21:00.667Z,5.18
2023-05-18T02:42:07.397Z,6.60
2023-05-18T02:52:46.789Z,5.50
2023-05-18T02:55:15.830Z,5.82
2023-05-18T03:00:33.881Z,5.47
2023-05-18T03:05:44.267Z,5.18
2023-05-18T03:10:59.026Z,5.93
2023-05-18T03:13:27.244Z,5.63
2023-05-18T03:23:58.845Z,6.20
2023-05-18T03:34:35.256Z,6.05
2023-05-18T03:39:44.031Z,6.22
2023-05-18T03:44:54.735Z,6.40
2023-05-18T03:50:08.324Z,6.28
2023-05-18T03:52:39.809Z,5.78
2023-05-18T03:55:07.569Z,5.72
2023-05-18T04:08:45.030Z,5.88
2023-05-18T04:11:27.833Z,6.10
2023-05-18T04:22:02.019Z,7.10
2023-05-18T04:24:29.547Z,5.57
2023-05-18T04:35:05.542Z,6.53
2023-05-18T04:37:34.029Z,6.63
2023-05-18T04:42:49.540Z,6.45
2023-05-18T05:09:26.038Z,5.70
2023-05-18T05:11:53.491Z,6.18
2023-05-18T05:17:02.534Z,5.22
2023-05-18T05:19:31.547Z,4.93
2023-05-18T05:21:59.734Z,4.82
2023-05-18T05:24:27.220Z,5.68
2023-05-18T05:26:54.353Z,4.93
2023-05-18T05:29:25.457Z,4.80
2023-05-18T05:31:56.547Z,5.10
2023-05-18T05:34:24.064Z,5.25
2023-05-18T05:36:51.479Z,4.47
2023-05-18T05:39:18.622Z,4.78
2023-05-18T05:41:46.101Z,4.90
2023-05-18T05:44:15.083Z,4.93
2023-05-18T05:49:18.434Z,4.60
2023-05-18T05:51:47.748Z,4.63
2023-05-18T05:54:16.136Z,5.07
2023-05-18T05:56:43.363Z,4.22
2023-05-18T05:59:11.089Z,6.47
2023-05-18T06:01:38.321Z,5.20
2023-05-18T06:04:10.777Z,4.55
2023-05-18T06:06:39.089Z,3.70
2023-05-18T06:09:07.565Z,4.10
2023-05-18T06:11:43.701Z,3.88
2023-05-18T06:14:12.023Z,4.10
2023-05-18T06:16:39.616Z,4.38
2023-05-18T06:19:10.767Z,4.43
2023-05-18T06:21:38.879Z,3.83
2023-05-18T06:24:06.653Z,3.85
2023-05-18T06:26:34.210Z,4.32
2023-05-18T06:29:02.280Z,4.72
2023-05-18T06:31:30.506Z,4.25
2023-05-18T06:33:58.934Z,4.63
2023-05-18T06:36:26.089Z,3.58
2023-05-18T06:38:53.239Z,3.83
2023-05-18T06:41:20.575Z,4.68
2023-05-18T06:43:47.929Z,4.25
2023-05-18T06:46:24.080Z,4.35
2023-05-18T06:48:51.912Z,4.03
2023-05-18T06:51:26.329Z,4.65
2023-05-18T06:53:53.740Z,3.83
2023-05-18T06:56:22.716Z,3.47
2023-05-18T06:58:49.945Z,3.80
2023-05-18T07:01:22.134Z,3.47
2023-05-18T07:03:49.835Z,3.90
2023-05-18T07:06:17.927Z,3.08
2023-05-18T07:08:49.773Z,3.50
2023-05-18T07:11:17.776Z,3.72
2023-05-18T07:13:45.536Z,3.38
2023-05-18T07:16:13.887Z,3.75
2023-05-18T07:18:43.407Z,3.47
2023-05-18T07:23:47.065Z,3.60
2023-05-18T07:26:16.310Z,3.50
2023-05-18T07:28:44.057Z,4.00
2023-05-18T07:31:11.554Z,3.88
2023-05-18T07:33:40.998Z,3.45
2023-05-18T07:36:10.643Z,3.80
2023-05-18T07:38:38.104Z,2.75
2023-05-18T07:41:06.948Z,3.60
2023-05-18T07:43:34.948Z,3.03
2023-05-18T07:46:05.831Z,3.38
2023-05-18T07:48:33.163Z,3.15
2023-05-18T07:51:01.019Z,4.00
2023-05-18T07:53:29.116Z,2.88
2023-05-18T07:55:57.035Z,3.33
2023-05-18T07:58:24.537Z,3.97
2023-05-18T08:00:51.678Z,3.33
2023-05-18T08:03:19.471Z,3.65
2023-05-18T08:05:46.613Z,3.38
2023-05-18T08:08:15.191Z,3.40
2023-05-18T08:10:42.718Z,3.08
2023-05-18T08:13:09.898Z,4.43
2023-05-18T08:15:38.690Z,3.40
2023-05-18T08:18:08.400Z,4.30
2023-05-18T08:20:35.996Z,3.67
2023-05-18T08:23:03.172Z,3.35
2023-05-18T08:25:30.551Z,2.90
2023-05-18T08:27:58.016Z,3.17
2023-05-18T08:30:26.717Z,3.30
2023-05-18T08:32:53.880Z,3.65
2023-05-18T08:35:21.093Z,2.78
2023-05-18T08:37:50.069Z,3.42
2023-05-18T08:40:17.561Z,3.20
2023-05-18T08:42:50.653Z,3.50
2023-05-18T08:45:36.629Z,3.28
2023-05-18T08:48:04.406Z,2.90
2023-05-18T08:50:32.420Z,3.13
2023-05-18T08:53:03.322Z,3.10
2023-05-18T08:55:34.613Z,3.08
2023-05-18T08:58:02.928Z,3.03
2023-05-18T09:00:30.460Z,2.83
2023-05-18T09:02:57.841Z,3.75
2023-05-18T09:05:25.236Z,3.17
2023-05-18T09:07:52.570Z,3.47
2023-05-18T09:10:19.655Z,3.22
2023-05-18T09:12:47.584Z,3.30
2023-05-18T09:15:16.215Z,3.10
2023-05-18T09:17:43.257Z,3.75
2023-05-18T09:20:10.569Z,3.53
2023-05-18T09:22:40.483Z,2.60
2023-05-18T09:25:11.216Z,2.38
2023-05-18T09:27:39.152Z,3.17
2023-05-18T09:30:11.105Z,3.17
2023-05-18T09:32:38.318Z,2.13
2023-05-18T09:35:06.409Z,2.38
2023-05-18T09:37:33.992Z,2.38
2023-05-18T09:40:02.157Z,3.65
2023-05-18T09:48:32.636Z,2.40
2023-05-18T09:51:00.426Z,2.85
2023-05-18T09:53:27.587Z,2.17
2023-05-18T09:55:54.691Z,2.28
2023-05-18T09:58:24.695Z,2.65
2023-05-18T10:00:54.020Z,2.38
2023-05-18T10:03:22.492Z,3.07
2023-05-18T10:05:49.779Z,2.83
2023-05-18T10:08:17.076Z,3.25
2023-05-18T10:10:48.257Z,2.95
2023-05-18T10:13:18.158Z,1.90
2023-05-18T10:15:54.245Z,2.83
2023-05-18T10:18:22.975Z,1.77
2023-05-18T10:20:51.090Z,2.00
2023-05-18T10:23:19.865Z,2.28
2023-05-18T10:25:47.881Z,2.17
2023-05-18T10:28:20.169Z,2.47
2023-05-18T10:30:47.465Z,3.88
2023-05-18T10:33:27.932Z,1.88
2023-05-18T10:35:56.483Z,1.90
2023-05-18T10:38:24.690Z,1.90
2023-05-18T10:40:52.893Z,1.70
2023-05-18T10:43:23.391Z,3.05
2023-05-18T10:46:10.120Z,2.30
2023-05-18T10:48:39.961Z,1.77
2023-05-18T10:51:08.007Z,2.25
2023-05-18T10:53:36.337Z,2.10
2023-05-18T10:56:03.584Z,2.67
2023-05-18T10:58:31.507Z,1.73
2023-05-18T11:00:59.740Z,2.38
2023-05-18T11:03:27.522Z,2.88
2023-05-18T11:06:03.836Z,1.75
2023-05-18T11:08:31.252Z,2.03
2023-05-18T11:11:07.475Z,1.77
2023-05-18T11:13:39.452Z,2.40
2023-05-18T11:16:07.171Z,2.70
2023-05-18T11:18:49.282Z,1.90
2023-05-18T11:21:25.449Z,1.77
2023-05-18T11:24:11.442Z,2.33
2023-05-18T11:26:39.636Z,1.90
2023-05-18T11:29:20.436Z,1.67
2023-05-18T11:31:48.582Z,2.17
2023-05-18T11:34:36.540Z,2.40
2023-05-18T11:37:06.619Z,1.60
2023-05-18T11:39:36.035Z,2.65
2023-05-18T11:42:09.015Z,2.03
2023-05-18T11:44:36.384Z,2.08
2023-05-18T11:47:08.913Z,1.92
2023-05-18T11:49:46.726Z,2.22
2023-05-18T11:52:21.811Z,2.00
2023-05-18T11:54:53.106Z,2.15
2023-05-18T11:57:35.642Z,2.38
2023-05-18T12:00:08.029Z,1.50
2023-05-18T12:02:35.481Z,1.98
2023-05-18T12:05:03.306Z,2.25
2023-05-18T12:07:35.260Z,2.10
2023-05-18T12:10:07.672Z,2.22
2023-05-18T12:12:35.250Z,2.03
2023-05-18T12:15:03.490Z,2.10
2023-05-18T12:17:43.760Z,2.97
2023-05-18T12:20:12.285Z,2.10
2023-05-18T12:22:43.226Z,2.63
2023-05-18T12:25:10.937Z,2.55
2023-05-18T12:27:39.642Z,2.00
2023-05-18T12:30:34.568Z,1.77
2023-05-18T12:33:02.413Z,2.22
2023-05-18T12:35:30.519Z,1.92
2023-05-18T12:38:00.983Z,1.77
2023-05-18T12:40:29.644Z,2.15
2023-05-18T12:43:00.282Z,2.22
2023-05-18T12:45:28.671Z,2.65
2023-05-18T12:47:58.224Z,2.10
2023-05-18T12:50:28.910Z,1.73
2023-05-18T12:52:57.173Z,1.75
2023-05-18T12:55:33.357Z,1.92
2023-05-18T12:58:02.317Z,2.10
2023-05-18T13:00:42.612Z,2.05
2023-05-18T13:03:14.743Z,2.30
2023-05-18T13:05:49.295Z,2.28
2023-05-18T13:08:19.025Z,1.50
2023-05-18T13:10:48.026Z,2.33
2023-05-18T13:13:20.366Z,1.98
2023-05-18T13:15:47.706Z,1.90
2023-05-18T13:18:15.256Z,2.30
2023-05-18T13:20:45.323Z,2.83
2023-05-18T13:23:13.443Z,2.50
2023-05-18T13:25:44.239Z,1.92
2023-05-18T13:28:12.482Z,2.53
2023-05-18T13:30:40.856Z,2.15
2023-05-18T13:33:10.965Z,2.05
2023-05-18T13:35:40.384Z,2.45
2023-05-18T13:40:34.744Z,2.08
2023-05-18T13:43:01.774Z,2.10
2023-05-18T13:45:30.796Z,2.10
2023-05-18T13:47:58.130Z,2.45
2023-05-18T13:50:26.236Z,2.10
2023-05-18T13:52:53.639Z,1.83
2023-05-18T13:55:20.917Z,2.03
2023-05-18T13:57:48.090Z,2.05
2023-05-18T14:00:18.804Z,2.00
2023-05-18T14:02:46.378Z,1.73
2023-05-18T14:05:14.103Z,1.70
2023-05-18T14:07:42.519Z,2.83
2023-05-18T14:10:10.528Z,2.80
2023-05-18T14:12:38.146Z,1.75
2023-05-18T14:15:06.108Z,2.17
2023-05-18T14:20:21.282Z,2.65
2023-05-18T14:25:20.125Z,2.45
2023-05-18T14:30:32.992Z,1.60
2023-05-18T14:33:05.479Z,1.80
2023-05-18T14:35:33.297Z,1.45
2023-05-18T14:40:49.392Z,1.70
2023-05-18T14:43:21.170Z,1.65
2023-05-18T14:48:40.778Z,2.25
2023-05-18T14:51:12.517Z,1.75
2023-05-18T14:53:41.325Z,2.35
2023-05-18T14:56:16.312Z,2.42
2023-05-18T14:58:49.726Z,2.08
2023-05-18T15:01:20.343Z,1.92
2023-05-18T15:14:46.595Z,2.00
2023-05-18T15:20:06.786Z,1.75
2023-05-18T15:22:36.578Z,2.08
2023-05-18T15:25:13.554Z,1.77
2023-05-18T15:27:42.009Z,1.88
2023-05-18T15:32:58.021Z,2.40
2023-05-18T15:43:38.448Z,1.65
2023-05-18T15:46:10.138Z,2.42
2023-05-18T15:51:27.241Z,1.55
2023-05-18T15:53:57.243Z,2.13
2023-05-18T15:56:26.263Z,1.58
2023-05-18T15:58:53.548Z,1.73
2023-05-18T16:01:22.409Z,1.88
2023-05-18T16:03:50.489Z,1.88
2023-05-18T16:06:19.091Z,2.10
2023-05-18T16:08:46.677Z,2.10
2023-05-18T16:11:13.825Z,2.22
2023-05-18T16:13:41.353Z,1.80
2023-05-18T16:16:10.353Z,2.10
2023-05-18T16:18:38.364Z,1.45
2023-05-18T16:21:05.851Z,2.03
2023-05-18T16:23:32.991Z,2.30
2023-05-18T16:31:38.815Z,1.90
2023-05-18T16:34:08.214Z,1.80
2023-05-18T16:36:37.217Z,2.22
2023-05-18T16:39:09.742Z,2.20
2023-05-18T16:41:37.400Z,1.60
2023-05-18T16:44:05.275Z,2.30
2023-05-18T16:46:35.952Z,2.65
2023-05-18T16:49:03.652Z,2.42
2023-05-18T16:51:32.237Z,2.08
2023-05-18T16:54:03.995Z,2.35
2023-05-18T16:56:35.311Z,2.53
2023-05-18T16:59:03.400Z,2.10
2023-05-18T17:01:32.558Z,2.60
2023-05-18T17:04:00.162Z,2.70
2023-05-18T17:06:27.849Z,2.28
2023-05-18T17:09:02.025Z,2.20
2023-05-18T17:11:30.928Z,1.95
2023-05-18T17:13:59.996Z,1.52
2023-05-18T17:16:28.570Z,1.77
2023-05-18T17:18:59.493Z,2.78
2023-05-18T17:21:28.670Z,2.83
2023-05-18T17:23:57.046Z,2.03
2023-05-18T17:29:05.708Z,1.77
2023-05-18T17:31:33.250Z,2.45
2023-05-18T17:34:06.268Z,2.00
2023-05-18T17:36:34.901Z,1.58
2023-05-18T17:39:03.293Z,2.47
2023-05-18T17:41:35.653Z,1.80
2023-05-18T17:44:03.155Z,2.03
2023-05-18T17:46:31.012Z,2.60
2023-05-18T17:48:58.125Z,1.95
2023-05-18T17:51:25.384Z,2.10
2023-05-18T17:53:52.848Z,2.20
2023-05-18T17:56:20.467Z,1.85
2023-05-18T17:58:48.012Z,2.13
2023-05-18T18:01:15.758Z,2.22
2023-05-18T18:03:43.104Z,1.90
2023-05-18T18:06:10.467Z,2.30
2023-05-18T18:08:38.008Z,2.90
2023-05-18T18:11:07.637Z,2.10
2023-05-18T18:13:36.584Z,2.63
2023-05-18T18:16:03.917Z,2.13
2023-05-18T18:21:06.630Z,2.28
2023-05-18T18:23:34.583Z,2.88
2023-05-18T18:26:02.390Z,2.13
2023-05-18T18:28:29.685Z,2.25
2023-05-18T18:30:58.564Z,1.95
2023-05-18T18:33:26.241Z,1.95
2023-05-18T18:35:54.823Z,2.50
2023-05-18T18:38:22.482Z,2.17
2023-05-18T18:43:25.867Z,2.55
2023-05-18T18:45:53.017Z,2.22
2023-05-18T18:48:23.333Z,2.45
2023-05-18T18:53:21.421Z,2.25
2023-05-18T18:55:49.273Z,2.20
2023-05-18T18:58:16.717Z,2.58
2023-05-18T19:00:44.605Z,3.05
2023-05-18T19:03:14.543Z,2.30
2023-05-18T19:05:42.444Z,2.97
2023-05-18T19:08:09.876Z,2.33
2023-05-18T19:10:40.110Z,2.72
2023-05-18T19:13:09.608Z,1.90
2023-05-18T19:15:37.209Z,2.50
2023-05-18T19:18:05.077Z,2.40
2023-05-18T19:20:32.605Z,2.88
2023-05-18T19:23:00.369Z,2.55
2023-05-18T19:25:29.883Z,3.67
2023-05-18T19:27:57.421Z,2.00
2023-05-18T19:30:25.285Z,2.05
2023-05-18T19:32:53.545Z,2.53
2023-05-18T19:35:21.990Z,2.03
2023-05-18T19:37:49.603Z,3.17
2023-05-18T19:40:17.378Z,3.45
2023-05-18T19:42:45.280Z,2.30
2023-05-18T19:56:12.667Z,3.10
2023-05-18T19:58:40.336Z,2.80
2023-05-18T20:01:10.102Z,2.50
2023-05-18T20:03:43.125Z,5.00
2023-05-18T20:06:11.996Z,2.90
2023-05-18T20:08:39.746Z,3.05
2023-05-18T20:11:07.649Z,2.28
2023-05-18T20:13:35.144Z,2.53
2023-05-18T20:16:03.936Z,2.40
2023-05-18T20:18:37.661Z,2.63
2023-05-18T20:21:05.684Z,2.53
2023-05-18T20:23:33.601Z,2.92
2023-05-18T20:26:01.727Z,2.30
2023-05-18T20:28:31.697Z,2.85
2023-05-18T20:30:59.323Z,3.03
2023-05-18T20:33:26.646Z,2.70
2023-05-18T20:35:53.975Z,3.45
2023-05-18T20:38:26.184Z,3.17
2023-05-18T20:40:53.783Z,3.10
2023-05-18T20:43:23.321Z,2.83
2023-05-18T20:45:51.597Z,2.97
2023-05-18T20:48:25.172Z,2.40
2023-05-18T20:50:52.873Z,3.25
2023-05-18T20:53:23.291Z,3.30
2023-05-18T20:58:21.553Z,2.97
2023-05-18T21:00:49.279Z,2.95
2023-05-18T21:03:18.606Z,2.95
2023-05-18T21:05:48.433Z,2.67
2023-05-18T21:08:16.098Z,3.10
2023-05-18T21:10:43.947Z,3.08
2023-05-18T21:13:12.121Z,2.88
2023-05-18T21:15:39.500Z,2.90
2023-05-18T21:18:06.988Z,3.00
2023-05-18T21:20:37.047Z,3.25
2023-05-18T21:23:04.693Z,3.00
2023-05-18T21:25:32.995Z,3.17
2023-05-18T21:28:00.437Z,3.20
2023-05-18T21:30:28.321Z,3.03
2023-05-18T21:32:57.193Z,3.55
2023-05-18T21:35:25.113Z,2.90
2023-05-18T21:37:52.516Z,3.17
2023-05-18T21:40:20.088Z,3.05
2023-05-18T21:42:47.542Z,3.33
2023-05-18T21:45:15.202Z,3.00
2023-05-18T21:47:43.567Z,3.47
2023-05-18T21:50:11.545Z,3.20
2023-05-18T21:52:38.850Z,3.35
2023-05-18T21:55:06.806Z,3.33
2023-05-18T21:57:37.257Z,3.80
2023-05-18T22:00:06.799Z,3.45
2023-05-18T22:02:34.623Z,3.22
2023-05-18T22:05:02.190Z,3.78
2023-05-18T22:07:30.098Z,3.17
2023-05-18T22:09:59.337Z,3.28
2023-05-18T22:12:26.967Z,3.15
2023-05-18T22:14:54.439Z,3.28
2023-05-18T22:17:25.264Z,2.95
2023-05-18T22:19:53.113Z,3.50
2023-05-18T22:22:30.114Z,3.95
2023-05-18T22:25:01.561Z,3.75
2023-05-18T22:27:29.208Z,4.47
2023-05-18T22:32:28.280Z,4.22
2023-05-18T22:34:56.164Z,3.40
2023-05-18T22:37:24.374Z,3.35
2023-05-18T22:39:52.410Z,4.18
2023-05-18T22:42:20.102Z,3.20
2023-05-18T22:44:47.748Z,3.60
2023-05-18T22:47:21.023Z,3.78
2023-05-18T22:49:52.070Z,4.32
2023-05-18T22:52:19.934Z,5.00
2023-05-18T22:54:47.986Z,4.05
2023-05-18T22:57:15.491Z,4.30
2023-05-18T22:59:43.228Z,4.82
2023-05-18T23:02:11.203Z,4.15
2023-05-18T23:04:39.308Z,4.63
2023-05-18T23:07:06.935Z,4.85
2023-05-18T23:09:34.791Z,4.55
2023-05-18T23:12:02.130Z,4.45
2023-05-18T23:14:31.386Z,5.65
2023-05-18T23:16:59.412Z,4.47
2023-05-18T23:19:27.109Z,4.50
2023-05-18T23:21:54.875Z,5.28
2023-05-18T23:24:23.001Z,5.25
2023-05-18T23:26:50.388Z,4.55
2023-05-18T23:29:17.911Z,4.55
2023-05-18T23:31:47.667Z,4.30
2023-05-18T23:34:15.726Z,4.73
2023-05-18T23:36:44.102Z,5.07
2023-05-18T23:39:12.660Z,5.13
2023-05-18T23:41:43.704Z,4.22
2023-05-18T23:44:11.277Z,4.50
2023-05-18T23:46:39.231Z,4.70
2023-05-18T23:49:10.019Z,4.72
2023-05-18T23:51:39.183Z,4.82
2023-05-18T23:54:07.628Z,4.68
2023-05-18T23:56:35.190Z,4.25
2023-05-18T23:59:02.967Z,3.30
